Time;durP1;ratioP1;P1;durP2;ratioP2;P2;SDS_P1;SDS_P2;PMS_P1;PMS_P2;Temp;Humidity;BMP_temperature;BMP_pressure;BME280_temperature;BME280_humidity;BME280_pressure;Samples;Min_cycle;Max_cycle;Signal;HPM_P1;HPM_P2
2023/12/03 00:01:28;;;;;;;1999.90;999.90;;;0.70;1.00;;;;;;4994235;28;20170;-70
2023/12/03 00:03:54;;;;;;;1999.90;999.90;;;0.70;1.00;;;;;;4994208;28;20638;-70
2023/12/03 00:06:19;;;;;;;1999.90;999.90;;;0.60;43.40;;;;;;4994209;28;20611;-71
2023/12/03 00:08:45;;;;;;;1999.90;999.90;;;0.60;99.90;;;;;;4993909;28;20189;-71
2023/12/03 00:11:11;;;;;;;1999.90;999.90;;;0.70;99.90;;;;;;4994026;28;20224;-70
2023/12/03 00:13:36;;;;;;;1999.90;999.90;;;0.70;99.90;;;;;;4993962;28;20174;-70
2023/12/03 00:16:02;;;;;;;1999.90;999.90;;;0.70;1.00;;;;;;4994002;28;20177;-71
2023/12/03 00:18:27;;;;;;;1999.90;999.90;;;0.70;1.00;;;;;;4993623;28;20212;-70
2023/12/03 00:20:53;;;;;;;1999.90;999.90;;;0.70;1.00;;;;;;4993944;28;20158;-70
2023/12/03 00:23:18;;;;;;;1999.90;999.90;;;0.80;1.00;;;;;;4993809;28;20166;-71
2023/12/03 00:25:44;;;;;;;1999.90;999.90;;;0.80;99.90;;;;;;4993852;28;20209;-71
2023/12/03 00:28:10;;;;;;;1999.90;999.90;;;0.80;99.90;;;;;;4992946;28;20189;-71
2023/12/03 00:30:35;;;;;;;1999.90;999.90;;;0.80;99.90;;;;;;4993751;28;20178;-71
2023/12/03 00:33:01;;;;;;;1999.90;999.90;;;0.80;99.90;;;;;;4993625;28;20189;-70
2023/12/03 00:35:26;;;;;;;1999.90;999.90;;;0.70;1.00;;;;;;4993635;28;20232;-70
2023/12/03 00:37:52;;;;;;;1999.90;999.90;;;0.60;47.90;;;;;;4993227;28;20269;-70
2023/12/03 00:40:17;;;;;;;1999.90;999.90;;;0.70;1.00;;;;;;4993494;28;20181;-71
2023/12/03 00:42:43;;;;;;;1999.90;999.90;;;0.70;1.00;;;;;;4993327;28;20169;-70
2023/12/03 00:45:09;;;;;;;1999.90;999.90;;;0.80;99.90;;;;;;4993413;28;20173;-69
2023/12/03 00:47:34;;;;;;;1999.90;999.90;;;0.60;99.90;;;;;;4993294;28;20206;-71
2023/12/03 00:50:00;;;;;;;1999.90;999.90;;;0.70;1.00;;;;;;4993579;28;20220;-70
2023/12/03 00:52:26;;;;;;;1999.90;999.90;;;0.60;99.90;;;;;;4993231;28;20580;-70
2023/12/03 00:54:51;;;;;;;1999.90;999.90;;;0.60;1.00;;;;;;4993291;28;20169;-70
2023/12/03 00:57:17;;;;;;;1999.90;999.90;;;0.60;1.00;;;;;;4992984;28;20181;-69
2023/12/03 00:59:43;;;;;;;1999.90;999.90;;;0.60;99.90;;;;;;4993103;28;20245;-71
2023/12/03 01:02:08;;;;;;;1999.90;999.90;;;0.80;99.90;;;;;;4993078;28;20170;-71
2023/12/03 01:04:34;;;;;;;1999.90;999.90;;;0.60;99.90;;;;;;4993132;28;20200;-71
2023/12/03 01:06:59;;;;;;;1999.90;999.90;;;0.50;99.90;;;;;;4992905;28;20181;-70
2023/12/03 01:09:29;;;;;;;1999.90;999.90;;;0.50;99.90;;;;;;4992980;28;20212;-70
2023/12/03 01:11:56;;;;;;;1999.90;999.90;;;0.50;1.00;;;;;;4992921;28;20178;-71
2023/12/03 01:14:21;;;;;;;1999.90;999.90;;;0.50;1.00;;;;;;4992927;28;20673;-70
2023/12/03 01:16:47;;;;;;;1999.90;999.90;;;0.50;1.00;;;;;;4992746;28;20373;-70
2023/12/03 01:19:13;;;;;;;1999.90;999.90;;;0.50;1.00;;;;;;4992912;28;20743;-70
2023/12/03 01:21:38;;;;;;;1999.90;999.90;;;0.50;1.00;;;;;;4992781;28;20248;-70
2023/12/03 01:24:04;;;;;;;1999.90;999.90;;;0.60;1.00;;;;;;4992815;28;20184;-70
2023/12/03 01:26:29;;;;;;;1999.90;999.90;;;0.60;1.00;;;;;;4992502;28;20177;-70
2023/12/03 01:28:56;;;;;;;1999.90;999.90;;;0.70;99.90;;;;;;4992733;28;20224;-71
2023/12/03 01:31:21;;;;;;;1999.90;999.90;;;0.70;99.90;;;;;;4992802;28;20564;-70
2023/12/03 01:33:47;;;;;;;1999.90;999.90;;;0.70;99.90;;;;;;4992704;28;20256;-70
2023/12/03 01:36:13;;;;;;;1999.90;999.90;;;0.70;99.90;;;;;;4992765;28;20174;-70
2023/12/03 01:38:38;;;;;;;1999.90;999.90;;;0.60;99.90;;;;;;4991758;28;20269;-70
2023/12/03 01:41:04;;;;;;;1999.90;999.90;;;0.60;99.90;;;;;;4992357;28;20705;-71
2023/12/03 01:43:29;;;;;;;1999.90;999.90;;;0.60;99.90;;;;;;4992770;28;20538;-70
2023/12/03 01:45:55;;;;;;;1999.90;999.90;;;0.50;99.90;;;;;;4992577;28;20662;-70
2023/12/03 01:48:21;;;;;;;1999.90;999.90;;;0.50;1.00;;;;;;4992434;28;20193;-70
2023/12/03 01:50:49;;;;;;;1999.90;999.90;;;0.50;1.00;;;;;;4992459;28;20184;-70
2023/12/03 01:53:16;;;;;;;1999.90;999.90;;;0.50;99.90;;;;;;4992513;28;20629;-70
2023/12/03 01:55:43;;;;;;;1999.90;999.90;;;0.50;26.00;;;;;;4992421;28;20268;-70
2023/12/03 01:58:09;;;;;;;1999.90;999.90;;;0.40;99.90;;;;;;4992114;28;20209;-70
2023/12/03 02:00:34;;;;;;;1999.90;999.90;;;0.40;67.30;;;;;;4992487;28;20689;-69
2023/12/03 02:03:00;;;;;;;1999.90;999.90;;;0.40;1.00;;;;;;4992473;28;20916;-70
2023/12/03 02:05:25;;;;;;;1999.90;999.90;;;0.40;1.00;;;;;;4992374;28;20223;-70
2023/12/03 02:07:51;;;;;;;1999.90;999.90;;;0.40;1.00;;;;;;4992144;28;20527;-70
2023/12/03 02:10:17;;;;;;;1999.90;999.90;;;0.40;80.20;;;;;;4992259;28;20261;-70
2023/12/03 02:12:43;;;;;;;1999.90;999.90;;;0.50;99.90;;;;;;4992257;28;20174;-71
2023/12/03 02:15:09;;;;;;;1999.90;999.90;;;0.50;99.90;;;;;;4992229;28;20185;-70
2023/12/03 02:17:35;;;;;;;1999.90;999.90;;;0.70;1.00;;;;;;4992032;28;20174;-70
2023/12/03 02:20:00;;;;;;;1999.90;999.90;;;0.60;99.90;;;;;;4992188;28;20718;-70
2023/12/03 02:22:26;;;;;;;1999.90;999.90;;;0.70;99.90;;;;;;4992160;28;20452;-70
2023/12/03 02:24:51;;;;;;;1999.90;999.90;;;0.60;99.90;;;;;;4992200;28;20176;-70
2023/12/03 02:27:17;;;;;;;1999.90;999.90;;;0.60;99.90;;;;;;4992006;28;20166;-70
2023/12/03 02:29:47;;;;;;;1999.90;999.90;;;0.60;1.00;;;;;;4992023;28;20201;-70
2023/12/03 02:32:12;;;;;;;1999.90;999.90;;;0.60;1.00;;;;;;4992043;28;20185;-70
2023/12/03 02:34:38;;;;;;;1999.90;999.90;;;0.60;1.00;;;;;;4992191;28;20252;-70
2023/12/03 02:37:04;;;;;;;1999.90;999.90;;;0.70;1.00;;;;;;4992065;28;20236;-70
2023/12/03 02:39:29;;;;;;;1999.90;999.90;;;0.60;1.00;;;;;;4991879;28;20616;-70
2023/12/03 02:41:55;;;;;;;1999.90;999.90;;;0.60;57.50;;;;;;4992026;28;20233;-70
2023/12/03 02:44:20;;;;;;;1999.90;999.90;;;0.60;65.20;;;;;;4992067;28;20178;-70
2023/12/03 02:46:46;;;;;;;1999.90;999.90;;;0.50;99.90;;;;;;4991860;28;20169;-70
2023/12/03 02:49:11;;;;;;;1999.90;999.90;;;0.50;1.00;;;;;;4992010;28;20194;-70
2023/12/03 02:51:37;;;;;;;1999.90;999.90;;;0.40;1.00;;;;;;4994570;28;20260;-70
2023/12/03 02:54:03;;;;;;;1999.90;999.90;;;0.40;1.00;;;;;;4995538;28;20181;-70
2023/12/03 02:56:28;;;;;;;1999.90;999.90;;;0.40;49.70;;;;;;4995529;28;20184;-70
2023/12/03 02:58:54;;;;;;;1999.90;999.90;;;0.30;99.90;;;;;;4995183;28;20205;-70
2023/12/03 03:01:19;;;;;;;1999.90;999.90;;;0.30;99.90;;;;;;4995364;28;20641;-70
2023/12/03 03:03:45;;;;;;;1999.90;999.90;;;0.30;1.00;;;;;;4995488;28;20201;-71
2023/12/03 03:06:10;;;;;;;1999.90;999.90;;;0.30;1.00;;;;;;4995407;28;20177;-70
2023/12/03 03:08:36;;;;;;;1999.90;999.90;;;0.30;99.90;;;;;;4995006;28;20185;-70
2023/12/03 03:11:02;;;;;;;1999.90;999.90;;;0.20;99.90;;;;;;4995209;28;20634;-71
2023/12/03 03:13:27;;;;;;;1999.90;999.90;;;0.30;99.90;;;;;;4994022;28;20205;-71
2023/12/03 03:15:53;;;;;;;1999.90;999.90;;;0.30;1.00;;;;;;4995278;28;20212;-70
2023/12/03 03:18:18;;;;;;;1999.90;999.90;;;0.30;1.00;;;;;;4994796;28;20194;-70
2023/12/03 03:20:44;;;;;;;1999.90;999.90;;;0.30;99.90;;;;;;4995004;28;20676;-70
2023/12/03 03:23:09;;;;;;;1999.90;999.90;;;0.30;1.00;;;;;;4994940;28;20268;-71
2023/12/03 03:25:35;;;;;;;1999.90;999.90;;;0.30;99.90;;;;;;4995071;28;20529;-70
2023/12/03 03:28:00;;;;;;;1999.90;999.90;;;0.30;1.00;;;;;;4994645;28;20193;-70
2023/12/03 03:30:26;;;;;;;1999.90;999.90;;;0.20;1.00;;;;;;4994904;28;20212;-70
2023/12/03 03:32:51;;;;;;;1999.90;999.90;;;0.30;1.00;;;;;;4994781;28;20194;-70
2023/12/03 03:35:17;;;;;;;1999.90;999.90;;;0.30;1.00;;;;;;4994824;28;20181;-71
2023/12/03 03:37:43;;;;;;;1999.90;999.90;;;0.40;99.90;;;;;;4994419;28;20633;-70
2023/12/03 03:40:09;;;;;;;1999.90;999.90;;;0.50;99.90;;;;;;4994639;28;20658;-70
2023/12/03 03:42:34;;;;;;;1999.90;999.90;;;0.50;21.90;;;;;;4994554;28;20198;-71
2023/12/03 03:45:00;;;;;;;1999.90;999.90;;;0.60;4.20;;;;;;4994689;28;20206;-71
2023/12/03 03:47:25;;;;;;;1999.90;999.90;;;0.60;34.10;;;;;;4994414;28;20166;-70
2023/12/03 03:49:51;;;;;;;1999.90;999.90;;;0.60;1.00;;;;;;4994466;28;20197;-71
2023/12/03 03:52:16;;;;;;;1999.90;999.90;;;0.70;1.00;;;;;;4994352;28;20170;-70
2023/12/03 03:54:42;;;;;;;1999.90;999.90;;;0.70;99.90;;;;;;4994676;28;20178;-70
2023/12/03 03:57:08;;;;;;;1999.90;999.90;;;0.70;99.90;;;;;;4994209;28;20620;-71
2023/12/03 03:59:33;;;;;;;1999.90;999.90;;;0.70;99.90;;;;;;4994119;28;20201;-70
2023/12/03 04:01:59;;;;;;;1999.90;999.90;;;0.70;99.90;;;;;;4993425;28;20409;-70
2023/12/03 04:04:24;;;;;;;1999.90;999.90;;;0.70;1.00;;;;;;4994313;28;20166;-70
2023/12/03 04:06:50;;;;;;;1999.90;999.90;;;0.80;99.90;;;;;;4993985;28;20174;-71
2023/12/03 04:09:15;;;;;;;1999.90;999.90;;;0.80;1.00;;;;;;4994130;28;20185;-70
2023/12/03 04:11:43;;;;;;;1999.90;999.90;;;0.80;1.00;;;;;;4994022;28;20207;-70
2023/12/03 04:14:15;;;;;;;1999.90;999.90;;;0.80;1.00;;;;;;4994244;28;20562;-70
2023/12/03 04:16:40;;;;;;;1999.90;999.90;;;0.80;1.00;;;;;;4993893;28;20232;-70
2023/12/03 04:19:06;;;;;;;1999.90;999.90;;;0.80;1.00;;;;;;4993819;28;20194;-71
2023/12/03 04:21:32;;;;;;;1999.90;999.90;;;0.80;99.90;;;;;;4994083;28;20173;-71
2023/12/03 04:23:58;;;;;;;1999.90;999.90;;;0.90;99.90;;;;;;4993913;28;20166;-70
2023/12/03 04:26:24;;;;;;;1999.90;999.90;;;0.90;99.90;;;;;;4993636;28;20404;-70
2023/12/03 04:28:50;;;;;;;1999.90;999.90;;;1.00;99.90;;;;;;4993734;28;20212;-70
2023/12/03 04:31:17;;;;;;;1999.90;999.90;;;1.00;1.00;;;;;;4993761;28;20181;-69
2023/12/03 04:33:42;;;;;;;1999.90;999.90;;;1.10;1.00;;;;;;4993757;28;20296;-70
2023/12/03 04:36:08;;;;;;;1999.90;999.90;;;1.10;1.00;;;;;;4993631;28;20220;-70
2023/12/03 04:38:35;;;;;;;1999.90;999.90;;;1.20;99.90;;;;;;4993292;28;20205;-70
2023/12/03 04:41:01;;;;;;;1999.90;999.90;;;1.10;39.70;;;;;;4993527;28;20488;-71
2023/12/03 04:43:27;;;;;;;1999.90;999.90;;;1.00;1.00;;;;;;4993550;28;20257;-70
2023/12/03 04:45:52;;;;;;;1999.90;999.90;;;1.00;1.00;;;;;;4993517;28;20792;-70
2023/12/03 04:48:18;;;;;;;1999.90;999.90;;;0.90;1.00;;;;;;4993190;28;20193;-70
2023/12/03 04:50:43;;;;;;;1999.90;999.90;;;0.80;1.00;;;;;;4993283;28;20173;-70
2023/12/03 04:53:09;;;;;;;1999.90;999.90;;;0.70;1.00;;;;;;4993476;28;20177;-70
2023/12/03 04:55:34;;;;;;;1999.90;999.90;;;0.60;1.00;;;;;;4993459;28;20206;-70
2023/12/03 04:58:00;;;;;;;1999.90;999.90;;;0.50;99.90;;;;;;4992796;28;20231;-70
2023/12/03 05:00:25;;;;;;;1999.90;999.90;;;0.40;99.90;;;;;;4993324;28;20225;-70
2023/12/03 05:02:51;;;;;;;1999.90;999.90;;;0.20;1.00;;;;;;4993129;28;20166;-70
2023/12/03 05:05:17;;;;;;;1999.90;999.90;;;0.20;1.00;;;;;;4993090;28;20170;-70
2023/12/03 05:07:42;;;;;;;1999.90;999.90;;;0.30;1.00;;;;;;4993050;28;20587;-70
2023/12/03 05:10:08;;;;;;;1999.90;999.90;;;0.10;99.90;;;;;;4993002;28;20409;-70
2023/12/03 05:12:33;;;;;;;1999.90;999.90;;;0.00;99.90;;;;;;4993124;28;20260;-70
2023/12/03 05:14:59;;;;;;;1999.90;999.90;;;0.00;1.00;;;;;;4992951;28;20680;-70
2023/12/03 05:17:25;;;;;;;1999.90;999.90;;;-0.10;99.90;;;;;;4992761;28;20544;-71
2023/12/03 05:19:50;;;;;;;1999.90;999.90;;;0.00;99.90;;;;;;4992734;28;20224;-70
2023/12/03 05:22:16;;;;;;;1999.90;999.90;;;0.00;99.90;;;;;;4993022;28;20177;-70
2023/12/03 05:24:41;;;;;;;1999.90;999.90;;;0.00;99.90;;;;;;4992807;28;20653;-70
2023/12/03 05:27:07;;;;;;;1999.90;999.90;;;0.00;1.00;;;;;;4992627;28;20177;-70
2023/12/03 05:29:33;;;;;;;1999.90;999.90;;;0.00;1.00;;;;;;4992710;28;20267;-70
2023/12/03 05:31:58;;;;;;;1999.90;999.90;;;0.00;1.00;;;;;;4992765;28;20175;-70
2023/12/03 05:34:24;;;;;;;1999.90;999.90;;;0.10;1.00;;;;;;4993036;28;20197;-70
2023/12/03 05:36:51;;;;;;;1999.90;999.90;;;0.10;1.00;;;;;;5002452;28;20184;-70
2023/12/03 05:39:17;;;;;;;1999.90;999.90;;;0.00;1.00;;;;;;5012205;28;20296;-70
2023/12/03 05:41:42;;;;;;;1999.90;999.90;;;0.00;1.00;;;;;;5012162;28;20251;-70
2023/12/03 05:44:08;;;;;;;1999.90;999.90;;;0.00;1.00;;;;;;5012186;28;20157;-70
2023/12/03 05:46:40;;;;;;;1999.90;999.90;;;0.00;99.90;;;;;;5011970;28;20415;-70
2023/12/03 05:49:08;;;;;;;1999.90;999.90;;;0.00;99.90;;;;;;5012074;28;20189;-70
2023/12/03 05:51:34;;;;;;;1999.90;999.90;;;-0.10;99.90;;;;;;5012248;28;20256;-70
2023/12/03 05:53:59;;;;;;;1999.90;999.90;;;-0.10;99.90;;;;;;5012170;28;20708;-70
2023/12/03 05:56:25;;;;;;;1999.90;999.90;;;-0.10;99.90;;;;;;5011890;28;20400;-70
2023/12/03 05:58:51;;;;;;;1999.90;999.90;;;-0.20;99.90;;;;;;5011802;28;20739;-70
2023/12/03 06:01:24;;;;;;;1999.90;999.90;;;-0.30;99.90;;;;;;5012041;28;20165;-70
2023/12/03 06:03:49;;;;;;;1999.90;999.90;;;-0.30;99.90;;;;;;5011886;28;20598;-70
2023/12/03 06:06:16;;;;;;;1999.90;999.90;;;-0.30;99.90;;;;;;5012207;28;20254;-70
2023/12/03 06:08:41;;;;;;;1999.90;999.90;;;-0.40;99.90;;;;;;5011614;28;20197;-70
2023/12/03 06:11:07;;;;;;;1999.90;999.90;;;-0.40;99.90;;;;;;5011890;28;20180;-70
2023/12/03 06:13:32;;;;;;;1999.90;999.90;;;-0.50;1.00;;;;;;5011904;28;20177;-70
2023/12/03 06:15:58;;;;;;;1999.90;999.90;;;-0.50;1.00;;;;;;5011868;28;20180;-70
2023/12/03 06:18:24;;;;;;;1999.90;999.90;;;-0.50;1.00;;;;;;5011775;28;20667;-69
2023/12/03 06:20:49;;;;;;;1999.90;999.90;;;-0.50;1.00;;;;;;5011852;28;20169;-70
2023/12/03 06:23:15;;;;;;;1999.90;999.90;;;-0.60;1.00;;;;;;5011845;28;20169;-69
2023/12/03 06:25:40;;;;;;;1999.90;999.90;;;-0.60;2.50;;;;;;5013269;28;20173;-70
2023/12/03 06:28:06;;;;;;;1999.90;999.90;;;-0.60;1.00;;;;;;5015424;28;20690;-70
2023/12/03 06:30:32;;;;;;;1999.90;999.90;;;-0.60;4.80;;;;;;5015645;28;20165;-70
2023/12/03 06:32:57;;;;;;;1999.90;999.90;;;-0.70;17.00;;;;;;5015456;28;20165;-69
2023/12/03 06:35:23;;;;;;;1999.90;999.90;;;-0.70;33.90;;;;;;5015559;28;20172;-70
2023/12/03 06:37:48;;;;;;;1999.90;999.90;;;-0.80;99.90;;;;;;5015203;28;20240;-70
2023/12/03 06:40:15;;;;;;;1999.90;999.90;;;-0.70;30.00;;;;;;5015375;28;20221;-70
2023/12/03 06:42:40;;;;;;;1999.90;999.90;;;-0.70;47.00;;;;;;5015332;28;20165;-69
2023/12/03 06:45:06;;;;;;;1999.90;999.90;;;-0.70;94.20;;;;;;5015287;28;20187;-70
2023/12/03 06:47:32;;;;;;;1999.90;999.90;;;-0.70;99.90;;;;;;5015179;28;20176;-70
2023/12/03 06:49:58;;;;;;;1999.90;999.90;;;-0.70;99.90;;;;;;5015145;28;20567;-70
2023/12/03 06:52:23;;;;;;;1999.90;999.90;;;-0.70;99.90;;;;;;5015082;28;20260;-70
2023/12/03 06:54:49;;;;;;;1999.90;999.90;;;-0.70;99.90;;;;;;5015171;28;20199;-70
2023/12/03 06:57:14;;;;;;;1999.90;999.90;;;-0.70;99.90;;;;;;5014976;28;20193;-70
2023/12/03 06:59:40;;;;;;;1999.90;999.90;;;-0.70;99.90;;;;;;5014860;28;20244;-70
2023/12/03 07:02:05;;;;;;;1999.90;999.90;;;-0.60;99.90;;;;;;5014887;28;20661;-70
2023/12/03 07:04:32;;;;;;;1999.90;999.90;;;-0.60;99.90;;;;;;5015007;28;20172;-70
2023/12/03 07:06:59;;;;;;;1999.90;999.90;;;-0.60;99.90;;;;;;5014877;28;20544;-70
2023/12/03 07:09:25;;;;;;;1999.90;999.90;;;-0.50;99.90;;;;;;5014910;28;20201;-70
2023/12/03 07:11:51;;;;;;;1999.90;999.90;;;-0.50;99.90;;;;;;5014779;28;20699;-70
2023/12/03 07:14:17;;;;;;;1999.90;999.90;;;-0.50;99.90;;;;;;5014739;28;20161;-70
2023/12/03 07:16:42;;;;;;;1999.90;999.90;;;-0.40;99.90;;;;;;5014552;28;20412;-70
2023/12/03 07:19:08;;;;;;;1999.90;999.90;;;-0.50;99.90;;;;;;5014561;28;20291;-70
2023/12/03 07:21:34;;;;;;;1999.90;999.90;;;-0.50;99.90;;;;;;5014597;28;20252;-70
2023/12/03 07:23:59;;;;;;;1999.90;999.90;;;-0.50;99.90;;;;;;5014554;28;20693;-70
2023/12/03 07:26:25;;;;;;;1999.90;999.90;;;-0.60;99.90;;;;;;5014405;28;20772;-71
2023/12/03 07:28:50;;;;;;;1999.90;999.90;;;-0.50;99.90;;;;;;5014447;28;20224;-70
2023/12/03 07:31:16;;;;;;;1999.90;999.90;;;-0.50;99.90;;;;;;5014424;28;20632;-71
2023/12/03 07:33:42;;;;;;;1999.90;999.90;;;-0.50;99.90;;;;;;5014392;28;20168;-71
2023/12/03 07:36:09;;;;;;;1999.90;999.90;;;-0.40;99.90;;;;;;5014112;28;20248;-70
2023/12/03 07:38:34;;;;;;;1999.90;999.90;;;-0.50;99.90;;;;;;5013171;28;20739;-70
2023/12/03 07:41:00;;;;;;;1999.90;999.90;;;-0.40;99.90;;;;;;5014252;28;20173;-70
2023/12/03 07:43:26;;;;;;;1999.90;999.90;;;-0.40;99.90;;;;;;5014174;28;20234;-70
2023/12/03 07:45:52;;;;;;;1999.90;999.90;;;-0.40;99.90;;;;;;5014475;28;20177;-70
2023/12/03 07:48:17;;;;;;;1999.90;999.90;;;-0.50;99.90;;;;;;5014050;28;21205;-70
2023/12/03 07:50:43;;;;;;;1999.90;999.90;;;-0.40;99.90;;;;;;5014033;28;20192;-70
2023/12/03 07:53:10;;;;;;;1999.90;999.90;;;-0.40;99.90;;;;;;5013999;28;20204;-71
2023/12/03 07:55:36;;;;;;;1999.90;999.90;;;-0.30;99.90;;;;;;5014027;28;20177;-69
2023/12/03 07:58:01;;;;;;;1999.90;999.90;;;-0.20;99.90;;;;;;5013594;28;20232;-70
2023/12/03 08:00:27;;;;;;;1999.90;999.90;;;-0.20;99.90;;;;;;5014035;28;20567;-70
2023/12/03 08:02:53;;;;;;;1999.90;999.90;;;-0.20;99.90;;;;;;5013845;28;20678;-70
2023/12/03 08:05:18;;;;;;;1999.90;999.90;;;-0.20;27.40;;;;;;5013846;28;20659;-70
2023/12/03 08:07:44;;;;;;;1999.90;999.90;;;-0.20;11.80;;;;;;5013557;28;20252;-70
2023/12/03 08:10:09;;;;;;;1999.90;999.90;;;-0.20;1.00;;;;;;5013756;28;20176;-71
2023/12/03 08:12:35;;;;;;;1999.90;999.90;;;-0.20;1.00;;;;;;5013668;28;20196;-70
2023/12/03 08:15:00;;;;;;;1999.90;999.90;;;-0.20;1.00;;;;;;5013701;28;20224;-70
2023/12/03 08:17:26;;;;;;;1999.90;999.90;;;-0.20;1.00;;;;;;5013440;28;20172;-70
2023/12/03 08:19:51;;;;;;;1999.90;999.90;;;-0.20;1.00;;;;;;5013452;28;20231;-71
2023/12/03 08:22:17;;;;;;;1999.90;999.90;;;-0.20;99.90;;;;;;5013413;28;20165;-70
2023/12/03 08:24:42;;;;;;;1999.90;999.90;;;-0.20;99.90;;;;;;5013465;28;20640;-70
2023/12/03 08:27:08;;;;;;;1999.90;999.90;;;-0.10;99.90;;;;;;5013270;28;20299;-70
2023/12/03 08:29:34;;;;;;;1999.90;999.90;;;0.00;99.90;;;;;;5013265;28;20200;-70
2023/12/03 08:31:59;;;;;;;1999.90;999.90;;;0.10;99.90;;;;;;5013169;28;20248;-70
2023/12/03 08:34:26;;;;;;;1999.90;999.90;;;0.20;1.00;;;;;;5013364;28;20539;-70
2023/12/03 08:36:51;;;;;;;1999.90;999.90;;;0.30;99.90;;;;;;5013195;28;20687;-70
2023/12/03 08:39:17;;;;;;;1999.90;999.90;;;0.30;99.90;;;;;;5013084;28;20197;-71
2023/12/03 08:41:42;;;;;;;1999.90;999.90;;;0.40;1.00;;;;;;5013136;28;20695;-70
2023/12/03 08:44:08;;;;;;;1999.90;999.90;;;0.50;99.90;;;;;;5013016;28;20215;-70
2023/12/03 08:46:33;;;;;;;1999.90;999.90;;;0.50;1.00;;;;;;5012948;28;20180;-68
2023/12/03 08:48:59;;;;;;;1999.90;999.90;;;0.50;1.00;;;;;;5012763;28;20699;-70
2023/12/03 08:51:25;;;;;;;1999.90;999.90;;;0.50;99.90;;;;;;5012942;28;20180;-70
2023/12/03 08:53:50;;;;;;;1999.90;999.90;;;0.50;1.00;;;;;;5012987;28;20633;-71
2023/12/03 08:56:16;;;;;;;1999.90;999.90;;;0.60;1.00;;;;;;5012935;28;20177;-70
2023/12/03 08:58:41;;;;;;;1999.90;999.90;;;0.70;1.00;;;;;;5012352;28;20216;-71
2023/12/03 09:01:07;;;;;;;1999.90;999.90;;;0.70;99.90;;;;;;5012793;28;20169;-70
2023/12/03 09:03:34;;;;;;;1999.90;999.90;;;0.70;50.80;;;;;;5012986;28;20260;-70
2023/12/03 09:06:00;;;;;;;1999.90;999.90;;;0.80;1.00;;;;;;5012731;28;20961;-70
2023/12/03 09:08:26;;;;;;;1999.90;999.90;;;0.90;99.90;;;;;;5012538;28;20189;-70
2023/12/03 09:10:51;;;;;;;1999.90;999.90;;;0.90;99.90;;;;;;5012635;28;20172;-70
2023/12/03 09:13:17;;;;;;;1999.90;999.90;;;0.90;99.90;;;;;;5012577;28;20207;-70
2023/12/03 09:15:42;;;;;;;1999.90;999.90;;;1.00;85.50;;;;;;5012562;28;20176;-71
2023/12/03 09:18:08;;;;;;;1999.90;999.90;;;1.10;99.90;;;;;;5012156;28;20200;-70
2023/12/03 09:20:34;;;;;;;1999.90;999.90;;;1.10;1.00;;;;;;5012528;28;20639;-71
2023/12/03 09:22:59;;;;;;;1999.90;999.90;;;1.10;1.00;;;;;;5012447;28;20173;-71
2023/12/03 09:25:25;;;;;;;1999.90;999.90;;;1.20;1.00;;;;;;5012553;28;20509;-71
2023/12/03 09:27:50;;;;;;;1999.90;999.90;;;1.30;1.00;;;;;;5012074;28;20528;-70
2023/12/03 09:30:16;;;;;;;1999.90;999.90;;;1.30;99.90;;;;;;5012363;28;20180;-70
2023/12/03 09:32:42;;;;;;;1999.90;999.90;;;1.40;99.90;;;;;;5012277;28;20180;-71
2023/12/03 09:35:07;;;;;;;1999.90;999.90;;;1.60;99.90;;;;;;5012319;28;20251;-70
2023/12/03 09:37:33;;;;;;;1999.90;999.90;;;1.70;91.80;;;;;;5012147;28;20200;-70
2023/12/03 09:40:02;;;;;;;1999.90;999.90;;;1.80;1.00;;;;;;5012151;28;20220;-70
2023/12/03 09:42:29;;;;;;;1999.90;999.90;;;1.90;99.90;;;;;;5012033;28;20412;-70
2023/12/03 09:45:04;;;;;;;1999.90;999.90;;;1.90;66.90;;;;;;5012253;28;20528;-71
2023/12/03 09:47:34;;;;;;;1999.90;999.90;;;1.90;1.00;;;;;;5011917;28;20222;-70
2023/12/03 09:50:01;;;;;;;1999.90;999.90;;;1.80;1.00;;;;;;5012176;28;20240;-71
2023/12/03 09:52:29;;;;;;;1999.90;999.90;;;1.90;1.00;;;;;;5012079;28;20169;-71
2023/12/03 09:55:00;;;;;;;1999.90;999.90;;;2.00;15.30;;;;;;5011957;28;20184;-70
2023/12/03 09:57:29;;;;;;;1999.90;999.90;;;2.10;1.00;;;;;;5011825;28;20205;-71
2023/12/03 10:00:01;;;;;;;1999.90;999.90;;;2.20;1.00;;;;;;5012198;28;20607;-71
2023/12/03 10:02:29;;;;;;;1999.90;999.90;;;2.30;1.00;;;;;;5016173;28;20542;-70
2023/12/03 10:04:58;;;;;;;1999.90;999.90;;;2.40;99.90;;;;;;5016115;28;20176;-71
2023/12/03 10:07:28;;;;;;;1999.90;999.90;;;2.40;99.90;;;;;;4992219;28;20182;-69
2023/12/03 10:09:58;;;;;;;1999.90;999.90;;;2.40;99.90;;;;;;4991522;28;20193;-69
2023/12/03 10:12:29;;;;;;;1999.90;999.90;;;2.40;99.90;;;;;;4992290;28;20182;-71
2023/12/03 10:14:57;;;;;;;1999.90;999.90;;;2.50;99.90;;;;;;4992709;28;20726;-71
2023/12/03 10:17:23;;;;;;;1999.90;999.90;;;2.50;3.10;;;;;;4991436;28;20711;-70
2023/12/03 10:19:48;;;;;;;1999.90;999.90;;;2.60;99.90;;;;;;4991549;28;20351;-69
2023/12/03 10:22:15;;;;;;;1999.90;999.90;;;2.70;99.90;;;;;;4992504;28;20181;-70
2023/12/03 10:24:47;;;;;;;1999.90;999.90;;;2.80;1.00;;;;;;4991386;28;20173;-69
2023/12/03 10:27:13;;;;;;;1999.90;999.90;;;2.90;1.00;;;;;;4991141;28;20182;-69
2023/12/03 10:29:39;;;;;;;1999.90;999.90;;;3.00;1.00;;;;;;4992181;28;20198;-70
2023/12/03 10:32:07;;;;;;;1999.90;999.90;;;3.10;1.00;;;;;;4991433;28;20791;-70
2023/12/03 10:34:33;;;;;;;1999.90;999.90;;;3.00;99.90;;;;;;4991271;28;20256;-70
2023/12/03 10:37:01;;;;;;;1999.90;999.90;;;3.20;99.90;;;;;;4985974;28;20586;-70
2023/12/03 10:39:26;;;;;;;1999.90;999.90;;;3.10;99.90;;;;;;4989161;28;20209;-70
2023/12/03 10:41:52;;;;;;;1999.90;999.90;;;3.20;99.90;;;;;;4991199;28;20236;-70
2023/12/03 10:44:18;;;;;;;1999.90;999.90;;;3.30;99.90;;;;;;4992064;28;20178;-70
2023/12/03 10:46:44;;;;;;;1999.90;999.90;;;3.30;68.90;;;;;;4991087;28;20240;-70
2023/12/03 10:49:12;;;;;;;1999.90;999.90;;;3.20;15.70;;;;;;4990863;28;20234;-70
2023/12/03 10:51:46;;;;;;;1999.90;999.90;;;3.20;23.20;;;;;;4991694;28;20583;-71
2023/12/03 10:54:12;;;;;;;1999.90;999.90;;;3.10;1.60;;;;;;4990556;28;20185;-70
2023/12/03 10:56:39;;;;;;;1999.90;999.90;;;3.10;2.10;;;;;;4990826;28;20311;-70
2023/12/03 10:59:10;;;;;;;1999.90;999.90;;;3.00;1.00;;;;;;4990497;28;20249;-70
2023/12/03 11:01:40;;;;;;;1999.90;999.90;;;3.00;73.20;;;;;;4990707;28;20182;-71
2023/12/03 11:04:20;;;;;;;1999.90;999.90;;;2.90;9.90;;;;;;4991772;28;20177;-70
2023/12/03 11:06:48;;;;;;;1999.90;999.90;;;2.90;99.90;;;;;;4991377;28;20525;-70
2023/12/03 11:09:15;;;;;;;1999.90;999.90;;;3.10;99.90;;;;;;4985375;28;20506;-70
2023/12/03 11:11:41;;;;;;;1999.90;999.90;;;3.20;99.90;;;;;;4982552;28;20188;-71
2023/12/03 11:14:07;;;;;;;1999.90;999.90;;;3.30;7.20;;;;;;4990701;28;20182;-70
2023/12/03 11:16:52;;;;;;;1999.90;999.90;;;3.20;1.00;;;;;;4991276;28;20173;-69
2023/12/03 11:19:21;;;;;;;1999.90;999.90;;;3.20;1.00;;;;;;4991008;28;20711;-70
2023/12/03 11:22:16;;;;;;;1999.90;999.90;;;3.40;1.00;;;;;;4991163;28;20436;-70
2023/12/03 11:25:05;;;;;;;1999.90;999.90;;;3.60;1.00;;;;;;4990277;28;20633;-70
2023/12/03 11:27:32;;;;;;;1999.90;999.90;;;3.80;1.00;;;;;;4988688;28;20192;-70
2023/12/03 11:29:59;;;;;;;1999.90;999.90;;;4.10;1.00;;;;;;4990010;28;20238;-70
2023/12/03 11:32:25;;;;;;;1999.90;999.90;;;4.30;99.90;;;;;;4986224;28;20198;-69
2023/12/03 11:35:14;;;;;;;1999.90;999.90;;;4.30;99.90;;;;;;4990949;28;20440;-70
2023/12/03 11:37:43;;;;;;;1999.90;999.90;;;4.90;1.00;;;;;;4989951;28;20260;-70
2023/12/03 11:40:16;;;;;;;1999.90;999.90;;;4.80;99.90;;;;;;4990656;28;20460;-70
2023/12/03 11:42:46;;;;;;;1999.90;999.90;;;5.10;1.00;;;;;;4985370;28;20429;-70
2023/12/03 11:45:15;;;;;;;1999.90;999.90;;;5.20;1.00;;;;;;4985825;28;20464;-70
2023/12/03 11:47:45;;;;;;;1999.90;999.90;;;5.10;99.90;;;;;;4989766;28;20412;-70
2023/12/03 11:50:13;;;;;;;1999.90;999.90;;;5.00;1.00;;;;;;4989963;28;20409;-70
2023/12/03 11:52:39;;;;;;;1999.90;999.90;;;5.20;1.00;;;;;;4990279;28;20504;-70
2023/12/03 11:55:12;;;;;;;1999.90;999.90;;;5.10;1.00;;;;;;4990212;28;20503;-70
2023/12/03 11:57:37;;;;;;;1999.90;999.90;;;5.10;99.90;;;;;;4989392;28;20665;-69
2023/12/03 12:00:06;;;;;;;1999.90;999.90;;;5.10;1.00;;;;;;4989665;28;20456;-70
2023/12/03 12:02:32;;;;;;;1999.90;999.90;;;5.00;1.00;;;;;;4990444;28;20205;-70
2023/12/03 12:05:07;;;;;;;1999.90;999.90;;;4.80;1.00;;;;;;4990010;28;20914;-70
2023/12/03 12:07:33;;;;;;;1999.90;999.90;;;4.90;1.00;;;;;;4989647;28;20444;-69